sensor_id;sensor_type;location;lat;lon;timestamp;pressure;altitude;pressure_sealevel;temperature;humidity
34073;BME280;20346;52.702;16.886;2023-11-19T10:23:21;100259.70;;;0.36;94.21
34073;BME280;20346;52.702;16.886;2023-11-19T10:26:07;100253.23;;;0.34;94.14
34073;BME280;20346;52.702;16.886;2023-11-19T10:28:55;100243.58;;;0.35;94.16
34073;BME280;20346;52.702;16.886;2023-11-19T10:31:55;100237.52;;;0.37;94.16
34073;BME280;20346;52.702;16.886;2023-11-19T10:34:42;100230.05;;;0.37;94.16
34073;BME280;20346;52.702;16.886;2023-11-19T10:37:29;100228.72;;;0.39;94.03
34073;BME280;20346;52.702;16.886;2023-11-19T10:40:21;100232.68;;;0.42;94.08
34073;BME280;20346;52.702;16.886;2023-11-19T10:43:07;100228.80;;;0.43;94.12
34073;BME280;20346;52.702;16.886;2023-11-19T10:46:09;100224.73;;;0.43;94.17
34073;BME280;20346;52.702;16.886;2023-11-19T10:48:55;100208.16;;;0.45;94.22
34073;BME280;20346;52.702;16.886;2023-11-19T10:51:44;100198.84;;;0.45;94.13
34073;BME280;20346;52.702;16.886;2023-11-19T10:54:32;100189.32;;;0.44;94.20
34073;BME280;20346;52.702;16.886;2023-11-19T10:57:21;100170.16;;;0.44;94.16
34073;BME280;20346;52.702;16.886;2023-11-19T11:00:11;100159.17;;;0.46;94.20
34073;BME280;20346;52.702;16.886;2023-11-19T11:03:08;100177.54;;;0.48;94.21
34073;BME280;20346;52.702;16.886;2023-11-19T11:05:56;100178.42;;;0.50;94.18
34073;BME280;20346;52.702;16.886;2023-11-19T11:08:42;100170.46;;;0.53;94.30
34073;BME280;20346;52.702;16.886;2023-11-19T11:11:29;100155.60;;;0.57;94.31
34073;BME280;20346;52.702;16.886;2023-11-19T11:14:16;100150.60;;;0.62;94.36
34073;BME280;20346;52.702;16.886;2023-11-19T11:17:04;100143.84;;;0.64;94.49
34073;BME280;20346;52.702;16.886;2023-11-19T11:19:53;100136.10;;;0.67;94.44
34073;BME280;20346;52.702;16.886;2023-11-19T11:29:46;100115.03;;;0.87;94.59
34073;BME280;20346;52.702;16.886;2023-11-19T11:32:45;100107.12;;;0.91;94.48
34073;BME280;20346;52.702;16.886;2023-11-19T11:38:44;100094.29;;;0.95;94.54
34073;BME280;20346;52.702;16.886;2023-11-19T11:41:30;100091.60;;;0.96;94.64
34073;BME280;20346;52.702;16.886;2023-11-19T11:44:16;100092.62;;;0.97;94.63
34073;BME280;20346;52.702;16.886;2023-11-19T11:47:02;100086.15;;;0.96;94.69
34073;BME280;20346;52.702;16.886;2023-11-19T11:49:49;100071.71;;;0.95;94.68
34073;BME280;20346;52.702;16.886;2023-11-19T11:58:36;100068.30;;;0.93;94.93
34073;BME280;20346;52.702;16.886;2023-11-19T12:01:25;100064.05;;;0.92;94.88
34073;BME280;20346;52.702;16.886;2023-11-19T12:04:14;100057.41;;;0.92;94.85
34073;BME280;20346;52.702;16.886;2023-11-19T12:07:04;100057.42;;;0.92;94.95
34073;BME280;20346;52.702;16.886;2023-11-19T12:10:12;100051.14;;;0.91;94.96
34073;BME280;20346;52.702;16.886;2023-11-19T12:12:58;100052.83;;;0.91;95.03
34073;BME280;20346;52.702;16.886;2023-11-19T12:16:08;100046.41;;;0.93;95.08
34073;BME280;20346;52.702;16.886;2023-11-19T12:18:54;100033.52;;;0.93;95.11
34073;BME280;20346;52.702;16.886;2023-11-19T12:21:41;100031.98;;;0.92;95.06
34073;BME280;20346;52.702;16.886;2023-11-19T12:24:27;100025.67;;;0.90;95.14
34073;BME280;20346;52.702;16.886;2023-11-19T12:27:13;100020.22;;;0.89;95.13
34073;BME280;20346;52.702;16.886;2023-11-19T12:30:02;100018.84;;;0.87;95.22
34073;BME280;20346;52.702;16.886;2023-11-19T12:32:52;100021.54;;;0.85;95.34
34073;BME280;20346;52.702;16.886;2023-11-19T12:35:45;100004.02;;;0.83;95.24
34073;BME280;20346;52.702;16.886;2023-11-19T12:38:33;99995.36;;;0.82;95.30
34073;BME280;20346;52.702;16.886;2023-11-19T12:41:19;99997.08;;;0.84;95.38
34073;BME280;20346;52.702;16.886;2023-11-19T12:44:11;100000.31;;;0.84;95.38
34073;BME280;20346;52.702;16.886;2023-11-19T12:47:01;99998.77;;;0.84;95.40
34073;BME280;20346;52.702;16.886;2023-11-19T12:49:57;99997.23;;;0.84;95.44
34073;BME280;20346;52.702;16.886;2023-11-19T12:52:43;99994.36;;;0.84;95.39
34073;BME280;20346;52.702;16.886;2023-11-19T12:55:29;99992.52;;;0.85;95.47
34073;BME280;20346;52.702;16.886;2023-11-19T12:58:32;99986.92;;;0.85;95.49
34073;BME280;20346;52.702;16.886;2023-11-19T13:01:20;99984.70;;;0.84;95.53
34073;BME280;20346;52.702;16.886;2023-11-19T13:04:17;99980.80;;;0.85;95.56
34073;BME280;20346;52.702;16.886;2023-11-19T13:07:03;99972.69;;;0.87;95.52
34073;BME280;20346;52.702;16.886;2023-11-19T13:09:50;99965.41;;;0.88;95.50
34073;BME280;20346;52.702;16.886;2023-11-19T13:12:39;99956.93;;;0.89;95.60
34073;BME280;20346;52.702;16.886;2023-11-19T13:15:25;99953.88;;;0.88;95.61
34073;BME280;20346;52.702;16.886;2023-11-19T13:18:12;99951.18;;;0.90;95.62
34073;BME280;20346;52.702;16.886;2023-11-19T13:21:00;99952.04;;;0.91;95.67
34073;BME280;20346;52.702;16.886;2023-11-19T13:23:45;99948.83;;;0.92;95.68
34073;BME280;20346;52.702;16.886;2023-11-19T13:26:31;99942.88;;;0.91;95.67
34073;BME280;20346;52.702;16.886;2023-11-19T13:29:17;99943.39;;;0.91;95.66
34073;BME280;20346;52.702;16.886;2023-11-19T13:32:03;99934.05;;;0.91;95.67
34073;BME280;20346;52.702;16.886;2023-11-19T13:34:50;99926.26;;;0.92;95.63
34073;BME280;20346;52.702;16.886;2023-11-19T13:37:36;99922.54;;;0.93;95.56
34073;BME280;20346;52.702;16.886;2023-11-19T13:40:21;99916.59;;;0.92;95.60
34073;BME280;20346;52.702;16.886;2023-11-19T13:43:10;99906.23;;;0.92;95.64
34073;BME280;20346;52.702;16.886;2023-11-19T13:45:57;99905.05;;;0.92;95.67
34073;BME280;20346;52.702;16.886;2023-11-19T13:48:44;99906.23;;;0.92;95.68
34073;BME280;20346;52.702;16.886;2023-11-19T13:51:29;99901.66;;;0.91;95.64
34073;BME280;20346;52.702;16.886;2023-11-19T13:54:15;99895.53;;;0.91;95.64
34073;BME280;20346;52.702;16.886;2023-11-19T13:57:02;99893.66;;;0.90;95.69
34073;BME280;20346;52.702;16.886;2023-11-19T13:59:49;99895.21;;;0.92;95.83
34073;BME280;20346;52.702;16.886;2023-11-19T14:02:35;99891.13;;;0.91;95.76
34073;BME280;20346;52.702;16.886;2023-11-19T14:05:21;99889.44;;;0.91;95.75
34073;BME280;20346;52.702;16.886;2023-11-19T14:08:08;99888.24;;;0.91;95.86
34073;BME280;20346;52.702;16.886;2023-11-19T14:10:57;99890.27;;;0.90;95.78
34073;BME280;20346;52.702;16.886;2023-11-19T14:13:43;99883.63;;;0.88;95.83
34073;BME280;20346;52.702;16.886;2023-11-19T14:16:29;99877.69;;;0.88;95.83
34073;BME280;20346;52.702;16.886;2023-11-19T14:19:15;99877.86;;;0.89;95.83
34073;BME280;20346;52.702;16.886;2023-11-19T14:22:01;99875.02;;;0.91;95.93
34073;BME280;20346;52.702;16.886;2023-11-19T14:24:47;99876.23;;;0.94;95.88
34073;BME280;20346;52.702;16.886;2023-11-19T14:27:33;99878.45;;;0.96;95.91
34073;BME280;20346;52.702;16.886;2023-11-19T14:30:19;99873.20;;;0.96;95.95
34073;BME280;20346;52.702;16.886;2023-11-19T14:33:05;99870.15;;;0.97;95.90
34073;BME280;20346;52.702;16.886;2023-11-19T14:35:51;99866.77;;;0.98;95.90
34073;BME280;20346;52.702;16.886;2023-11-19T14:38:37;99858.64;;;0.99;95.92
34073;BME280;20346;52.702;16.886;2023-11-19T14:41:24;99857.44;;;0.97;95.90
34073;BME280;20346;52.702;16.886;2023-11-19T14:44:10;99849.79;;;0.97;95.96
34073;BME280;20346;52.702;16.886;2023-11-19T14:46:56;99847.26;;;0.97;95.94
34073;BME280;20346;52.702;16.886;2023-11-19T14:49:42;99844.37;;;0.97;96.03
34073;BME280;20346;52.702;16.886;2023-11-19T14:52:28;99843.02;;;0.99;96.13
34073;BME280;20346;52.702;16.886;2023-11-19T14:55:14;99841.50;;;0.99;96.14
34073;BME280;20346;52.702;16.886;2023-11-19T14:58:00;99837.60;;;1.00;96.06
34073;BME280;20346;52.702;16.886;2023-11-19T15:00:46;99837.27;;;1.01;96.13
34073;BME280;20346;52.702;16.886;2023-11-19T15:03:32;99835.92;;;1.02;96.15
34073;BME280;20346;52.702;16.886;2023-11-19T15:06:25;99834.41;;;1.03;96.09
34073;BME280;20346;52.702;16.886;2023-11-19T15:09:19;99833.21;;;1.04;96.08
34073;BME280;20346;52.702;16.886;2023-11-19T15:12:14;99836.45;;;1.07;96.06
34073;BME280;20346;52.702;16.886;2023-11-19T15:15:01;99832.76;;;1.11;96.07
34073;BME280;20346;52.702;16.886;2023-11-19T15:17:49;99829.05;;;1.14;96.20
34073;BME280;20346;52.702;16.886;2023-11-19T15:20:34;99825.85;;;1.16;96.09
34073;BME280;20346;52.702;16.886;2023-11-19T15:23:21;99820.45;;;1.19;96.14
34073;BME280;20346;52.702;16.886;2023-11-19T15:26:07;99818.59;;;1.20;96.03
34073;BME280;20346;52.702;16.886;2023-11-19T15:28:56;99817.08;;;1.22;96.13
34073;BME280;20346;52.702;16.886;2023-11-19T15:31:43;99817.45;;;1.25;96.16
34073;BME280;20346;52.702;16.886;2023-11-19T15:34:29;99817.61;;;1.25;96.19
34073;BME280;20346;52.702;16.886;2023-11-19T15:37:16;99819.48;;;1.26;96.09
34073;BME280;20346;52.702;16.886;2023-11-19T15:40:02;99816.45;;;1.27;96.24
34073;BME280;20346;52.702;16.886;2023-11-19T15:42:54;99814.91;;;1.27;96.17
34073;BME280;20346;52.702;16.886;2023-11-19T15:45:43;99813.40;;;1.28;96.25
34073;BME280;20346;52.702;16.886;2023-11-19T15:48:29;99812.20;;;1.28;96.22
34073;BME280;20346;52.702;16.886;2023-11-19T15:51:15;99811.89;;;1.30;96.21
34073;BME280;20346;52.702;16.886;2023-11-19T15:54:03;99802.20;;;1.29;96.33
34073;BME280;20346;52.702;16.886;2023-11-19T15:56:51;99804.77;;;1.31;96.29
34073;BME280;20346;52.702;16.886;2023-11-19T15:59:38;99803.56;;;1.30;96.56
34073;BME280;20346;52.702;16.886;2023-11-19T16:02:24;99799.48;;;1.29;96.43
34073;BME280;20346;52.702;16.886;2023-11-19T16:05:10;99792.04;;;1.31;96.49
34073;BME280;20346;52.702;16.886;2023-11-19T16:07:56;99793.25;;;1.34;96.49
34073;BME280;20346;52.702;16.886;2023-11-19T16:10:42;99792.73;;;1.35;96.44
34073;BME280;20346;52.702;16.886;2023-11-19T16:13:30;99788.33;;;1.36;96.44
34073;BME280;20346;52.702;16.886;2023-11-19T16:16:16;99788.48;;;1.35;96.36
34073;BME280;20346;52.702;16.886;2023-11-19T16:19:02;99792.56;;;1.35;96.42
34073;BME280;20346;52.702;16.886;2023-11-19T16:21:50;99787.98;;;1.33;96.33
34073;BME280;20346;52.702;16.886;2023-11-19T16:24:36;99785.10;;;1.35;96.45
34073;BME280;20346;52.702;16.886;2023-11-19T16:27:23;99786.13;;;1.35;96.44
34073;BME280;20346;52.702;16.886;2023-11-19T16:30:11;99787.16;;;1.37;96.42
34073;BME280;20346;52.702;16.886;2023-11-19T16:32:57;99785.99;;;1.41;96.51
34073;BME280;20346;52.702;16.886;2023-11-19T16:35:46;99779.44;;;1.48;96.61
34073;BME280;20346;52.702;16.886;2023-11-19T16:38:32;99786.42;;;1.56;96.89
34073;BME280;20346;52.702;16.886;2023-11-19T16:41:19;99787.83;;;1.63;96.82
34073;BME280;20346;52.702;16.886;2023-11-19T16:44:07;99783.13;;;1.71;96.85
34073;BME280;20346;52.702;16.886;2023-11-19T16:46:53;99777.73;;;1.78;97.12
34073;BME280;20346;52.702;16.886;2023-11-19T16:49:39;99786.74;;;1.80;97.01
34073;BME280;20346;52.702;16.886;2023-11-19T16:52:25;99783.19;;;1.81;96.79
34073;BME280;20346;52.702;16.886;2023-11-19T16:55:11;99784.37;;;1.81;96.68
34073;BME280;20346;52.702;16.886;2023-11-19T16:57:57;99776.39;;;1.82;96.66
34073;BME280;20346;52.702;16.886;2023-11-19T17:00:45;99778.64;;;1.88;97.10
34073;BME280;20346;52.702;16.886;2023-11-19T17:03:30;99776.26;;;1.87;96.91
34073;BME280;20346;52.702;16.886;2023-11-19T17:06:16;99778.99;;;1.91;96.86
34073;BME280;20346;52.702;16.886;2023-11-19T17:09:03;99779.89;;;1.97;96.91
34073;BME280;20346;52.702;16.886;2023-11-19T17:11:49;99776.84;;;2.03;96.94
34073;BME280;20346;52.702;16.886;2023-11-19T17:14:35;99779.42;;;2.06;97.20
34073;BME280;20346;52.702;16.886;2023-11-19T17:17:22;99784.35;;;2.08;97.20
34073;BME280;20346;52.702;16.886;2023-11-19T17:20:08;99773.12;;;2.09;97.00
34073;BME280;20346;52.702;16.886;2023-11-19T17:22:55;99775.86;;;2.14;97.02
34073;BME280;20346;52.702;16.886;2023-11-19T17:25:41;99776.39;;;2.19;97.18
34073;BME280;20346;52.702;16.886;2023-11-19T17:28:27;99774.34;;;2.16;96.88
34073;BME280;20346;52.702;16.886;2023-11-19T17:31:13;99775.39;;;2.25;97.16
34073;BME280;20346;52.702;16.886;2023-11-19T17:33:59;99777.13;;;2.32;97.44
34073;BME280;20346;52.702;16.886;2023-11-19T17:36:45;99777.84;;;2.42;97.75
34073;BME280;20346;52.702;16.886;2023-11-19T17:39:31;99783.99;;;2.51;97.90
34073;BME280;20346;52.702;16.886;2023-11-19T17:42:18;99781.79;;;2.51;97.58
34073;BME280;20346;52.702;16.886;2023-11-19T17:45:05;99785.04;;;2.62;97.86
34073;BME280;20346;52.702;16.886;2023-11-19T17:47:52;99784.70;;;2.70;97.72
34073;BME280;20346;52.702;16.886;2023-11-19T17:50:38;99776.73;;;2.81;97.93
34073;BME280;20346;52.702;16.886;2023-11-19T17:53:24;99784.23;;;2.93;98.05
34073;BME280;20346;52.702;16.886;2023-11-19T17:56:09;99777.44;;;2.98;97.95
34073;BME280;20346;52.702;16.886;2023-11-19T17:58:55;99783.75;;;3.07;97.87
34073;BME280;20346;52.702;16.886;2023-11-19T18:01:43;99787.66;;;3.08;97.60
34073;BME280;20346;52.702;16.886;2023-11-19T18:04:28;99783.58;;;3.06;97.40
34073;BME280;20346;52.702;16.886;2023-11-19T18:07:18;99786.98;;;3.05;97.28
34073;BME280;20346;52.702;16.886;2023-11-19T18:10:10;99786.46;;;3.04;97.25
34073;BME280;20346;52.702;16.886;2023-11-19T18:12:56;99784.92;;;2.99;97.03
34073;BME280;20346;52.702;16.886;2023-11-19T18:15:43;99793.43;;;2.94;97.01
34073;BME280;20346;52.702;16.886;2023-11-19T18:18:29;99798.70;;;2.92;97.07
34073;BME280;20346;52.702;16.886;2023-11-19T18:21:15;99796.48;;;2.88;96.93
34073;BME280;20346;52.702;16.886;2023-11-19T18:24:00;99802.09;;;2.82;96.92
34073;BME280;20346;52.702;16.886;2023-11-19T18:26:46;99798.00;;;2.81;97.03
34073;BME280;20346;52.702;16.886;2023-11-19T18:29:32;99798.52;;;2.81;97.10
34073;BME280;20346;52.702;16.886;2023-11-19T18:32:18;99796.81;;;2.81;97.07
34073;BME280;20346;52.702;16.886;2023-11-19T18:35:05;99796.46;;;2.78;97.07
34073;BME280;20346;52.702;16.886;2023-11-19T18:37:52;99797.66;;;2.77;97.14
34073;BME280;20346;52.702;16.886;2023-11-19T18:40:37;99794.75;;;2.76;97.08
34073;BME280;20346;52.702;16.886;2023-11-19T18:43:23;99797.48;;;2.76;97.05
34073;BME280;20346;52.702;16.886;2023-11-19T18:46:11;99800.38;;;2.76;97.06
34073;BME280;20346;52.702;16.886;2023-11-19T18:48:59;99798.66;;;2.73;96.99
34073;BME280;20346;52.702;16.886;2023-11-19T18:51:45;99799.67;;;2.72;97.05
34073;BME280;20346;52.702;16.886;2023-11-19T18:54:31;99798.32;;;2.75;97.22
34073;BME280;20346;52.702;16.886;2023-11-19T18:57:17;99796.97;;;2.75;97.21
34073;BME280;20346;52.702;16.886;2023-11-19T19:00:05;99796.30;;;2.77;97.29
34073;BME280;20346;52.702;16.886;2023-11-19T19:02:52;99794.09;;;2.77;97.32
34073;BME280;20346;52.702;16.886;2023-11-19T19:05:38;99788.64;;;2.78;97.39
34073;BME280;20346;52.702;16.886;2023-11-19T19:08:25;99792.55;;;2.79;97.40
34073;BME280;20346;52.702;16.886;2023-11-19T19:11:12;99793.74;;;2.80;97.43
34073;BME280;20346;52.702;16.886;2023-11-19T19:13:59;99790.70;;;2.87;97.79
34073;BME280;20346;52.702;16.886;2023-11-19T19:16:46;99789.36;;;3.03;98.24
34073;BME280;20346;52.702;16.886;2023-11-19T19:19:32;99792.24;;;3.41;99.74
34073;BME280;20346;52.702;16.886;2023-11-19T19:22:18;99792.19;;;3.75;99.95
34073;BME280;20346;52.702;16.886;2023-11-19T19:25:05;99794.36;;;3.98;99.99
34073;BME280;20346;52.702;16.886;2023-11-19T19:27:51;99798.85;;;4.29;100.00
34073;BME280;20346;52.702;16.886;2023-11-19T19:30:37;99802.14;;;4.86;100.00
34073;BME280;20346;52.702;16.886;2023-11-19T19:33:23;99801.79;;;5.54;100.00
34073;BME280;20346;52.702;16.886;2023-11-19T19:36:09;99798.17;;;5.92;100.00
34073;BME280;20346;52.702;16.886;2023-11-19T19:38:55;99801.15;;;6.19;100.00
34073;BME280;20346;52.702;16.886;2023-11-19T19:41:41;99802.70;;;6.30;100.00
34073;BME280;20346;52.702;16.886;2023-11-19T19:44:27;99804.05;;;6.47;100.00
34073;BME280;20346;52.702;16.886;2023-11-19T19:47:14;99807.58;;;6.52;100.00
34073;BME280;20346;52.702;16.886;2023-11-19T19:50:00;99813.08;;;6.64;100.00
34073;BME280;20346;52.702;16.886;2023-11-19T19:52:46;99812.33;;;6.69;100.00
34073;BME280;20346;52.702;16.886;2023-11-19T19:55:32;99812.08;;;6.74;100.00
34073;BME280;20346;52.702;16.886;2023-11-19T19:58:18;99815.01;;;6.84;100.00
34073;BME280;20346;52.702;16.886;2023-11-19T20:01:05;99816.89;;;6.97;100.00
34073;BME280;20346;52.702;16.886;2023-11-19T20:03:54;99816.95;;;7.05;100.00
34073;BME280;20346;52.702;16.886;2023-11-19T20:06:40;99813.16;;;7.17;100.00
34073;BME280;20346;52.702;16.886;2023-11-19T20:09:25;99812.64;;;7.18;100.00
34073;BME280;20346;52.702;16.886;2023-11-19T20:12:11;99814.42;;;7.14;100.00
34073;BME280;20346;52.702;16.886;2023-11-19T20:14:58;99818.48;;;7.17;100.00
34073;BME280;20346;52.702;16.886;2023-11-19T20:17:46;99820.58;;;7.15;100.00
34073;BME280;20346;52.702;16.886;2023-11-19T20:20:32;99821.72;;;7.18;100.00
34073;BME280;20346;52.702;16.886;2023-11-19T20:23:18;99823.57;;;7.21;100.00
34073;BME280;20346;52.702;16.886;2023-11-19T20:26:05;99823.67;;;7.25;100.00
34073;BME280;20346;52.702;16.886;2023-11-19T20:28:51;99826.06;;;7.26;100.00
34073;BME280;20346;52.702;16.886;2023-11-19T20:31:40;99832.58;;;7.26;100.00
34073;BME280;20346;52.702;16.886;2023-11-19T20:34:27;99830.35;;;7.26;100.00
34073;BME280;20346;52.702;16.886;2023-11-19T20:37:14;99832.18;;;7.28;100.00
34073;BME280;20346;52.702;16.886;2023-11-19T20:39:59;99833.38;;;7.28;100.00
34073;BME280;20346;52.702;16.886;2023-11-19T20:42:45;99834.70;;;7.30;100.00
34073;BME280;20346;52.702;16.886;2023-11-19T20:45:31;99833.48;;;7.32;100.00
34073;BME280;20346;52.702;16.886;2023-11-19T20:48:17;99835.14;;;7.36;100.00
34073;BME280;20346;52.702;16.886;2023-11-19T20:51:04;99838.46;;;7.43;100.00
34073;BME280;20346;52.702;16.886;2023-11-19T20:53:50;99838.20;;;7.49;100.00
34073;BME280;20346;52.702;16.886;2023-11-19T20:56:36;99832.96;;;7.54;100.00
34073;BME280;20346;52.702;16.886;2023-11-19T20:59:23;99833.66;;;7.54;100.00
34073;BME280;20346;52.702;16.886;2023-11-19T21:02:09;99830.04;;;7.55;100.00
34073;BME280;20346;52.702;16.886;2023-11-19T21:04:55;99833.98;;;7.55;100.00
34073;BME280;20346;52.702;16.886;2023-11-19T21:07:41;99834.80;;;7.58;100.00
34073;BME280;20346;52.702;16.886;2023-11-19T21:10:27;99837.00;;;7.60;100.00
34073;BME280;20346;52.702;16.886;2023-11-19T21:13:13;99833.76;;;7.58;100.00
34073;BME280;20346;52.702;16.886;2023-11-19T21:16:02;99831.38;;;7.57;100.00
34073;BME280;20346;52.702;16.886;2023-11-19T21:18:48;99834.57;;;7.61;100.00
34073;BME280;20346;52.702;16.886;2023-11-19T21:21:34;99835.41;;;7.62;100.00
34073;BME280;20346;52.702;16.886;2023-11-19T21:24:20;99836.92;;;7.64;100.00
34073;BME280;20346;52.702;16.886;2023-11-19T21:27:06;99832.96;;;7.65;100.00
34073;BME280;20346;52.702;16.886;2023-11-19T21:29:53;99834.88;;;7.63;100.00
34073;BME280;20346;52.702;16.886;2023-11-19T21:32:41;99832.98;;;7.64;100.00
34073;BME280;20346;52.702;16.886;2023-11-19T21:35:27;99830.37;;;7.66;100.00
34073;BME280;20346;52.702;16.886;2023-11-19T21:38:13;99832.44;;;7.66;100.00
34073;BME280;20346;52.702;16.886;2023-11-19T21:41:00;99837.09;;;7.65;100.00
34073;BME280;20346;52.702;16.886;2023-11-19T21:43:46;99837.80;;;7.62;100.00
34073;BME280;20346;52.702;16.886;2023-11-19T21:46:33;99841.42;;;7.61;100.00
34073;BME280;20346;52.702;16.886;2023-11-19T21:49:19;99839.90;;;7.60;100.00
34073;BME280;20346;52.702;16.886;2023-11-19T21:52:05;99845.55;;;7.61;100.00
34073;BME280;20346;52.702;16.886;2023-11-19T21:54:51;99843.67;;;7.60;100.00
34073;BME280;20346;52.702;16.886;2023-11-19T21:57:38;99845.23;;;7.58;100.00
34073;BME280;20346;52.702;16.886;2023-11-19T22:00:26;99843.38;;;7.58;100.00
34073;BME280;20346;52.702;16.886;2023-11-19T22:03:12;99841.48;;;7.57;100.00
34073;BME280;20346;52.702;16.886;2023-11-19T22:05:59;99843.16;;;7.60;100.00
34073;BME280;20346;52.702;16.886;2023-11-19T22:08:46;99844.70;;;7.61;100.00
34073;BME280;20346;52.702;16.886;2023-11-19T22:11:32;99841.77;;;7.61;100.00
34073;BME280;20346;52.702;16.886;2023-11-19T22:14:18;99842.08;;;7.63;100.00
34073;BME280;20346;52.702;16.886;2023-11-19T22:17:04;99839.34;;;7.62;100.00
34073;BME280;20346;52.702;16.886;2023-11-19T22:19:50;99836.42;;;7.63;100.00
34073;BME280;20346;52.702;16.886;2023-11-19T22:22:37;99837.77;;;7.64;100.00
34073;BME280;20346;52.702;16.886;2023-11-19T22:25:24;99835.06;;;7.62;100.00
34073;BME280;20346;52.702;16.886;2023-11-19T22:28:13;99839.02;;;7.61;100.00
34073;BME280;20346;52.702;16.886;2023-11-19T22:31:00;99839.04;;;7.60;100.00
34073;BME280;20346;52.702;16.886;2023-11-19T22:33:46;99840.77;;;7.59;100.00
34073;BME280;20346;52.702;16.886;2023-11-19T22:36:34;99840.45;;;7.57;100.00
34073;BME280;20346;52.702;16.886;2023-11-19T22:39:21;99839.09;;;7.57;100.00
34073;BME280;20346;52.702;16.886;2023-11-19T22:42:07;99838.05;;;7.58;100.00
34073;BME280;20346;52.702;16.886;2023-11-19T22:44:53;99833.08;;;7.58;100.00
34073;BME280;20346;52.702;16.886;2023-11-19T22:47:39;99832.06;;;7.57;100.00
34073;BME280;20346;52.702;16.886;2023-11-19T22:50:26;99831.55;;;7.57;100.00
34073;BME280;20346;52.702;16.886;2023-11-19T22:53:13;99833.95;;;7.57;100.00
34073;BME280;20346;52.702;16.886;2023-11-19T22:55:59;99837.39;;;7.56;100.00
34073;BME280;20346;52.702;16.886;2023-11-19T22:58:45;99837.91;;;7.55;100.00
34073;BME280;20346;52.702;16.886;2023-11-19T23:01:35;99842.38;;;7.55;100.00
34073;BME280;20346;52.702;16.886;2023-11-19T23:04:21;99842.22;;;7.55;100.00
34073;BME280;20346;52.702;16.886;2023-11-19T23:07:09;99844.13;;;7.54;100.00
34073;BME280;20346;52.702;16.886;2023-11-19T23:09:55;99838.97;;;7.54;100.00
34073;BME280;20346;52.702;16.886;2023-11-19T23:12:42;99845.79;;;7.57;100.00
34073;BME280;20346;52.702;16.886;2023-11-19T23:15:29;99838.50;;;7.62;100.00
34073;BME280;20346;52.702;16.886;2023-11-19T23:18:16;99839.31;;;7.64;100.00
34073;BME280;20346;52.702;16.886;2023-11-19T23:21:02;99841.00;;;7.67;100.00
34073;BME280;20346;52.702;16.886;2023-11-19T23:23:49;99845.10;;;7.68;100.00
34073;BME280;20346;52.702;16.886;2023-11-19T23:26:35;99843.16;;;7.71;100.00
34073;BME280;20346;52.702;16.886;2023-11-19T23:29:21;99842.45;;;7.72;100.00
34073;BME280;20346;52.702;16.886;2023-11-19T23:32:07;99844.30;;;7.75;100.00
34073;BME280;20346;52.702;16.886;2023-11-19T23:34:54;99841.19;;;7.76;100.00
34073;BME280;20346;52.702;16.886;2023-11-19T23:37:40;99844.24;;;7.78;100.00
34073;BME280;20346;52.702;16.886;2023-11-19T23:40:27;99843.84;;;7.80;100.00
34073;BME280;20346;52.702;16.886;2023-11-19T23:43:13;99840.90;;;7.81;100.00
34073;BME280;20346;52.702;16.886;2023-11-19T23:46:00;99844.36;;;7.80;100.00
34073;BME280;20346;52.702;16.886;2023-11-19T23:48:46;99842.33;;;7.79;100.00
34073;BME280;20346;52.702;16.886;2023-11-19T23:51:36;99837.89;;;7.78;100.00
34073;BME280;20346;52.702;16.886;2023-11-19T23:54:22;99842.20;;;7.77;100.00
34073;BME280;20346;52.702;16.886;2023-11-19T23:57:08;99838.81;;;7.74;100.00
34073;BME280;20346;52.702;16.886;2023-11-19T23:59:55;99841.23;;;7.73;100.00
